HYS276 LROP-LRCL
Flight info
| Callsign | HYS276 |
|---|---|
| Flight time | 0h 30m |
| Altitude | 34000 |
| Route | BUKEL DCT EDETA |
| Aircraft | A320/M-SDE3FGHIRWY/LB1 |
Departure
| Time | 2026-05-07 15:31 |
|---|---|
| Airport | Bucharest Henri Coandă International Airport (LROP) |
Arrival
| Time | 2026-05-07 16:01 |
|---|---|
| Airport | Avram Iancu Cluj International Airport (LRCL) |
| Time | Latitude | Longitude | Altitude | Speed | Heading |
|---|---|---|---|---|---|
| 2026-05-07 15:09 | 44.57014 | 26.08025 | 316 ft | 0 kts | 353° |
| 2026-05-07 15:21 | 44.57011 | 26.08026 | 315 ft | 3 kts | 353° |
| 2026-05-07 15:21 | 44.56984 | 26.08030 | 314 ft | 4 kts | 353° |
| 2026-05-07 15:21 | 44.56957 | 26.08034 | 313 ft | 4 kts | 2° |
| 2026-05-07 15:21 | 44.56935 | 26.08026 | 312 ft | 4 kts | 55° |
| 2026-05-07 15:22 | 44.56929 | 26.07997 | 313 ft | 4 kts | 83° |
| 2026-05-07 15:22 | 44.56926 | 26.07960 | 314 ft | 4 kts | 83° |
| 2026-05-07 15:22 | 44.56924 | 26.07928 | 313 ft | 1 kts | 83° |
| 2026-05-07 15:26 | 44.56925 | 26.07941 | 313 ft | 4 kts | 84° |
| 2026-05-07 15:26 | 44.56929 | 26.08005 | 314 ft | 8 kts | 84° |
| 2026-05-07 15:26 | 44.56936 | 26.08103 | 314 ft | 12 kts | 84° |
| 2026-05-07 15:27 | 44.56945 | 26.08233 | 314 ft | 15 kts | 84° |
| 2026-05-07 15:27 | 44.56973 | 26.08382 | 314 ft | 17 kts | 44° |
| 2026-05-07 15:27 | 44.57080 | 26.08376 | 315 ft | 16 kts | 355° |
| 2026-05-07 15:27 | 44.57197 | 26.08364 | 318 ft | 16 kts | 8° |
| 2026-05-07 15:28 | 44.57250 | 26.08486 | 318 ft | 15 kts | 36° |
| 2026-05-07 15:28 | 44.57357 | 26.08484 | 318 ft | 17 kts | 353° |
| 2026-05-07 15:28 | 44.57486 | 26.08466 | 320 ft | 20 kts | 355° |
| 2026-05-07 15:28 | 44.57564 | 26.08455 | 320 ft | 9 kts | 354° |
| 2026-05-07 15:29 | 44.57629 | 26.08445 | 323 ft | 10 kts | 354° |
| 2026-05-07 15:29 | 44.57671 | 26.08492 | 324 ft | 11 kts | 88° |
| 2026-05-07 15:29 | 44.57676 | 26.08614 | 323 ft | 15 kts | 83° |
| 2026-05-07 15:29 | 44.57690 | 26.08796 | 320 ft | 33 kts | 84° |
| 2026-05-07 15:30 | 44.57743 | 26.09499 | 316 ft | 108 kts | 84° |
| 2026-05-07 15:30 | 44.57848 | 26.10817 | 320 ft | 161 kts | 82° |
| 2026-05-07 15:30 | 44.57993 | 26.12573 | 465 ft | 201 kts | 84° |
| 2026-05-07 15:30 | 44.58133 | 26.14697 | 723 ft | 235 kts | 84° |
| 2026-05-07 15:31 | 44.58278 | 26.17104 | 1280 ft | 260 kts | 86° |
| 2026-05-07 15:31 | 44.58475 | 26.19740 | 1998 ft | 281 kts | 84° |
| 2026-05-07 15:31 | 44.58887 | 26.22508 | 2790 ft | 300 kts | 69° |
| 2026-05-07 15:31 | 44.60261 | 26.24778 | 3569 ft | 317 kts | 32° |
| 2026-05-07 15:32 | 44.62388 | 26.25674 | 4405 ft | 327 kts | 359° |
| 2026-05-07 15:32 | 44.64698 | 26.25199 | 4876 ft | 348 kts | 344° |
| 2026-05-07 15:32 | 44.66984 | 26.23818 | 5186 ft | 368 kts | 326° |
| 2026-05-07 15:32 | 44.69109 | 26.21714 | 5831 ft | 377 kts | 323° |
| 2026-05-07 15:33 | 44.71252 | 26.19543 | 6644 ft | 382 kts | 322° |
| 2026-05-07 15:33 | 44.73390 | 26.17362 | 7410 ft | 385 kts | 322° |
| 2026-05-07 15:33 | 44.75570 | 26.15134 | 8227 ft | 388 kts | 322° |
| 2026-05-07 15:33 | 44.77770 | 26.12881 | 9022 ft | 391 kts | 322° |
| 2026-05-07 15:34 | 44.79985 | 26.10609 | 9799 ft | 395 kts | 322° |
| 2026-05-07 15:34 | 44.82213 | 26.08322 | 10512 ft | 398 kts | 322° |
| 2026-05-07 15:34 | 44.84444 | 26.06032 | 11181 ft | 403 kts | 322° |
| 2026-05-07 15:34 | 44.85958 | 26.04476 | 11630 ft | 406 kts | 322° |
| 2026-05-07 15:35 | 44.89042 | 26.01302 | 12531 ft | 413 kts | 322° |
| 2026-05-07 15:35 | 44.90593 | 25.99705 | 12986 ft | 417 kts | 322° |
| 2026-05-07 15:35 | 44.92956 | 25.97274 | 13645 ft | 422 kts | 322° |
| 2026-05-07 15:35 | 44.95339 | 25.94815 | 14236 ft | 426 kts | 322° |
| 2026-05-07 15:36 | 44.98534 | 25.91516 | 15007 ft | 430 kts | 322° |
| 2026-05-07 15:36 | 45.00177 | 25.89826 | 15399 ft | 432 kts | 322° |
| 2026-05-07 15:36 | 45.02617 | 25.87320 | 15978 ft | 435 kts | 322° |
| 2026-05-07 15:36 | 45.05077 | 25.84797 | 16529 ft | 437 kts | 322° |
| 2026-05-07 15:37 | 45.07544 | 25.82261 | 17085 ft | 440 kts | 322° |
| 2026-05-07 15:37 | 45.10026 | 25.79703 | 17622 ft | 442 kts | 322° |
| 2026-05-07 15:37 | 45.12493 | 25.77160 | 18130 ft | 445 kts | 322° |
| 2026-05-07 15:37 | 45.15002 | 25.74571 | 18598 ft | 447 kts | 322° |
| 2026-05-07 15:38 | 45.17524 | 25.71965 | 19049 ft | 450 kts | 322° |
| 2026-05-07 15:38 | 45.20057 | 25.69344 | 19479 ft | 452 kts | 322° |
| 2026-05-07 15:38 | 45.22612 | 25.66694 | 19897 ft | 454 kts | 322° |
| 2026-05-07 15:38 | 45.25180 | 25.64029 | 20316 ft | 456 kts | 322° |
| 2026-05-07 15:39 | 45.27747 | 25.61359 | 20698 ft | 458 kts | 322° |
| 2026-05-07 15:39 | 45.30302 | 25.58696 | 21015 ft | 461 kts | 322° |
| 2026-05-07 15:39 | 45.32891 | 25.55997 | 21426 ft | 461 kts | 321° |
| 2026-05-07 15:39 | 45.35493 | 25.53288 | 21762 ft | 464 kts | 321° |
| 2026-05-07 15:40 | 45.38112 | 25.50560 | 22090 ft | 466 kts | 321° |
| 2026-05-07 15:40 | 45.40734 | 25.47826 | 22416 ft | 468 kts | 321° |
| 2026-05-07 15:40 | 45.43337 | 25.45104 | 22702 ft | 470 kts | 321° |
| 2026-05-07 15:40 | 45.45973 | 25.42344 | 22993 ft | 471 kts | 321° |
| 2026-05-07 15:41 | 45.48621 | 25.39566 | 23268 ft | 472 kts | 321° |
| 2026-05-07 15:41 | 45.51270 | 25.36781 | 23484 ft | 474 kts | 321° |
| 2026-05-07 15:41 | 45.53943 | 25.33970 | 23663 ft | 475 kts | 321° |
| 2026-05-07 15:41 | 45.56613 | 25.31158 | 23818 ft | 477 kts | 321° |
| 2026-05-07 15:42 | 45.59289 | 25.28332 | 23974 ft | 478 kts | 321° |
| 2026-05-07 15:42 | 45.61966 | 25.25500 | 24117 ft | 479 kts | 321° |
| 2026-05-07 15:42 | 45.64618 | 25.22694 | 24267 ft | 480 kts | 321° |
| 2026-05-07 15:42 | 45.67302 | 25.19852 | 24395 ft | 480 kts | 321° |
| 2026-05-07 15:43 | 45.69990 | 25.17008 | 24515 ft | 481 kts | 321° |
| 2026-05-07 15:43 | 45.72696 | 25.14146 | 24625 ft | 481 kts | 321° |
| 2026-05-07 15:43 | 45.75391 | 25.11291 | 24742 ft | 481 kts | 321° |
| 2026-05-07 15:43 | 45.78094 | 25.08426 | 24866 ft | 482 kts | 320° |
| 2026-05-07 15:44 | 45.80767 | 25.05584 | 24984 ft | 482 kts | 320° |
| 2026-05-07 15:44 | 45.83472 | 25.02699 | 25103 ft | 483 kts | 320° |
| 2026-05-07 15:44 | 45.86173 | 24.99813 | 25210 ft | 482 kts | 320° |
| 2026-05-07 15:44 | 45.88837 | 24.96966 | 25333 ft | 482 kts | 320° |
| 2026-05-07 15:45 | 45.91533 | 24.94078 | 25452 ft | 482 kts | 320° |
| 2026-05-07 15:45 | 45.94212 | 24.91207 | 25752 ft | 477 kts | 320° |
| 2026-05-07 15:45 | 45.96851 | 24.88377 | 26242 ft | 470 kts | 320° |
| 2026-05-07 15:45 | 45.99459 | 24.85580 | 26274 ft | 466 kts | 320° |
| 2026-05-07 15:46 | 46.04572 | 24.80086 | 24794 ft | 452 kts | 320° |
| 2026-05-07 15:46 | 46.07084 | 24.77383 | 23927 ft | 448 kts | 320° |
| 2026-05-07 15:46 | 46.09573 | 24.74704 | 23014 ft | 445 kts | 320° |
| 2026-05-07 15:47 | 46.12039 | 24.72045 | 22084 ft | 441 kts | 320° |
| 2026-05-07 15:47 | 46.14483 | 24.69401 | 21209 ft | 437 kts | 320° |
| 2026-05-07 15:47 | 46.16900 | 24.66782 | 20359 ft | 433 kts | 320° |
| 2026-05-07 15:47 | 46.19295 | 24.64187 | 19536 ft | 429 kts | 320° |
| 2026-05-07 15:48 | 46.21673 | 24.61607 | 18741 ft | 426 kts | 320° |
| 2026-05-07 15:48 | 46.24039 | 24.59035 | 17944 ft | 424 kts | 321° |
| 2026-05-07 15:48 | 46.26386 | 24.56481 | 17171 ft | 420 kts | 321° |
| 2026-05-07 15:48 | 46.28711 | 24.53949 | 16465 ft | 417 kts | 321° |
| 2026-05-07 15:49 | 46.31019 | 24.51436 | 15806 ft | 413 kts | 321° |
| 2026-05-07 15:49 | 46.33301 | 24.48947 | 15158 ft | 409 kts | 320° |
| 2026-05-07 15:49 | 46.35559 | 24.46481 | 14494 ft | 405 kts | 320° |
| 2026-05-07 15:49 | 46.37798 | 24.44032 | 13830 ft | 402 kts | 320° |
| 2026-05-07 15:50 | 46.40016 | 24.41603 | 13100 ft | 398 kts | 320° |
| 2026-05-07 15:50 | 46.42191 | 24.39221 | 12350 ft | 393 kts | 320° |
| 2026-05-07 15:50 | 46.44370 | 24.36834 | 11555 ft | 391 kts | 320° |
| 2026-05-07 15:50 | 46.46528 | 24.34467 | 10828 ft | 387 kts | 320° |
| 2026-05-07 15:51 | 46.48667 | 24.32118 | 10122 ft | 383 kts | 320° |
| 2026-05-07 15:51 | 46.50783 | 24.29796 | 9374 ft | 379 kts | 320° |
| 2026-05-07 15:51 | 46.52874 | 24.27496 | 8646 ft | 374 kts | 320° |
| 2026-05-07 15:51 | 46.54939 | 24.25218 | 7922 ft | 370 kts | 321° |
| 2026-05-07 15:52 | 46.56954 | 24.22995 | 7207 ft | 366 kts | 320° |
| 2026-05-07 15:52 | 46.58973 | 24.20766 | 6522 ft | 363 kts | 320° |
| 2026-05-07 15:52 | 46.60970 | 24.18555 | 5807 ft | 359 kts | 320° |
| 2026-05-07 15:52 | 46.62945 | 24.16366 | 5347 ft | 349 kts | 320° |
| 2026-05-07 15:53 | 46.64828 | 24.14282 | 5226 ft | 332 kts | 320° |
| 2026-05-07 15:53 | 46.66628 | 24.12288 | 5073 ft | 317 kts | 320° |
| 2026-05-07 15:53 | 46.68345 | 24.10378 | 4920 ft | 305 kts | 320° |
| 2026-05-07 15:53 | 46.69994 | 24.08517 | 4769 ft | 294 kts | 319° |
| 2026-05-07 15:54 | 46.71570 | 24.06695 | 4603 ft | 284 kts | 319° |
| 2026-05-07 15:54 | 46.73077 | 24.04902 | 4462 ft | 274 kts | 318° |
| 2026-05-07 15:54 | 46.74505 | 24.03143 | 4294 ft | 264 kts | 317° |
| 2026-05-07 15:54 | 46.75866 | 24.01403 | 4142 ft | 256 kts | 316° |
| 2026-05-07 15:55 | 46.77292 | 23.99880 | 4014 ft | 251 kts | 326° |
| 2026-05-07 15:55 | 46.78774 | 23.98575 | 3764 ft | 247 kts | 327° |
| 2026-05-07 15:55 | 46.80234 | 23.97291 | 3500 ft | 242 kts | 327° |
| 2026-05-07 15:55 | 46.81653 | 23.96003 | 3278 ft | 236 kts | 324° |
| 2026-05-07 15:56 | 46.82911 | 23.94536 | 3099 ft | 226 kts | 313° |
| 2026-05-07 15:56 | 46.83803 | 23.92790 | 2900 ft | 205 kts | 283° |
| 2026-05-07 15:56 | 46.83748 | 23.90827 | 2730 ft | 190 kts | 258° |
| 2026-05-07 15:56 | 46.83460 | 23.89018 | 2678 ft | 171 kts | 255° |
| 2026-05-07 15:57 | 46.83085 | 23.87494 | 2681 ft | 152 kts | 249° |
| 2026-05-07 15:57 | 46.82680 | 23.86117 | 2597 ft | 146 kts | 249° |
| 2026-05-07 15:57 | 46.82310 | 23.84765 | 2453 ft | 142 kts | 253° |
| 2026-05-07 15:57 | 46.82005 | 23.83406 | 2311 ft | 140 kts | 257° |
| 2026-05-07 15:58 | 46.81762 | 23.82031 | 2269 ft | 141 kts | 261° |
| 2026-05-07 15:58 | 46.81500 | 23.80653 | 2266 ft | 142 kts | 255° |
| 2026-05-07 15:58 | 46.81171 | 23.79291 | 2154 ft | 142 kts | 253° |
| 2026-05-07 15:58 | 46.80850 | 23.77937 | 2098 ft | 140 kts | 253° |
| 2026-05-07 15:59 | 46.80538 | 23.76583 | 1952 ft | 139 kts | 256° |
| 2026-05-07 15:59 | 46.80241 | 23.75242 | 1815 ft | 139 kts | 255° |
| 2026-05-07 15:59 | 46.79952 | 23.73924 | 1714 ft | 137 kts | 253° |
| 2026-05-07 15:59 | 46.79651 | 23.72600 | 1486 ft | 138 kts | 255° |
| 2026-05-07 16:00 | 46.79369 | 23.71278 | 1349 ft | 136 kts | 256° |
| 2026-05-07 16:00 | 46.79091 | 23.69983 | 1123 ft | 131 kts | 255° |
| 2026-05-07 16:00 | 46.78836 | 23.68797 | 1025 ft | 109 kts | 252° |
| 2026-05-07 16:00 | 46.78633 | 23.67892 | 1035 ft | 77 kts | 252° |
| 2026-05-07 16:01 | 46.78517 | 23.67348 | 1037 ft | 24 kts | 252° |
| 2026-05-07 16:01 | 46.78441 | 23.67167 | 1039 ft | 18 kts | 186° |
| 2026-05-07 16:01 | 46.78370 | 23.67252 | 1038 ft | 15 kts | 130° |
| 2026-05-07 16:01 | 46.78349 | 23.67404 | 1037 ft | 17 kts | 78° |
| 2026-05-07 16:02 | 46.78375 | 23.67594 | 1036 ft | 21 kts | 79° |
| 2026-05-07 16:02 | 46.78407 | 23.67822 | 1035 ft | 25 kts | 78° |
| 2026-05-07 16:02 | 46.78442 | 23.68083 | 1033 ft | 28 kts | 78° |
| 2026-05-07 16:02 | 46.78482 | 23.68377 | 1032 ft | 31 kts | 78° |
| 2026-05-07 16:03 | 46.78520 | 23.68647 | 1030 ft | 23 kts | 78° |
| 2026-05-07 16:03 | 46.78553 | 23.68891 | 1027 ft | 27 kts | 79° |
| 2026-05-07 16:03 | 46.78591 | 23.69172 | 1026 ft | 30 kts | 79° |
| 2026-05-07 16:03 | 46.78628 | 23.69441 | 1022 ft | 25 kts | 78° |
| 2026-05-07 16:04 | 46.78663 | 23.69698 | 1024 ft | 22 kts | 78° |
| 2026-05-07 16:04 | 46.78697 | 23.69867 | 1023 ft | 11 kts | 84° |
| 2026-05-07 16:04 | 46.78665 | 23.69845 | 1024 ft | 10 kts | 279° |
| 2026-05-07 16:04 | 46.78668 | 23.69737 | 1024 ft | 0 kts | 258° |